createdAt,value
2023-05-14T00:02:23.676Z,5.27
2023-05-14T00:04:55.439Z,4.87
2023-05-14T00:07:30.812Z,4.43
2023-05-14T00:10:02.744Z,5.37
2023-05-14T00:12:34.491Z,5.97
2023-05-14T00:15:06.788Z,6.10
2023-05-14T00:17:38.883Z,5.10
2023-05-14T00:20:12.220Z,4.43
2023-05-14T00:22:44.022Z,5.77
2023-05-14T00:25:15.763Z,7.10
2023-05-14T00:27:47.548Z,8.43
2023-05-14T00:30:19.302Z,7.50
2023-05-14T00:32:51.050Z,7.97
2023-05-14T00:35:22.930Z,5.90
2023-05-14T00:37:55.069Z,6.53
2023-05-14T00:40:27.656Z,6.20
2023-05-14T00:42:59.472Z,4.80
2023-05-14T00:45:31.255Z,5.07
2023-05-14T00:48:03.498Z,4.90
2023-05-14T00:50:35.559Z,4.73
2023-05-14T00:53:10.258Z,5.07
2023-05-14T00:55:42.896Z,7.93
2023-05-14T00:58:14.979Z,4.60
2023-05-14T01:00:46.818Z,4.90
2023-05-14T01:03:18.733Z,4.43
2023-05-14T01:06:08.729Z,6.60
2023-05-14T01:09:14.822Z,4.83
2023-05-14T01:12:06.839Z,4.80
2023-05-14T01:14:46.489Z,5.23
2023-05-14T01:17:20.427Z,5.53
2023-05-14T01:19:52.496Z,4.27
2023-05-14T01:22:24.300Z,4.83
2023-05-14T01:24:56.127Z,5.33
2023-05-14T01:27:53.031Z,4.97
2023-05-14T01:30:40.066Z,7.30
2023-05-14T01:33:14.446Z,6.27
2023-05-14T01:35:47.155Z,5.30
2023-05-14T01:38:20.136Z,5.27
2023-05-14T01:40:53.268Z,4.70
2023-05-14T01:43:25.495Z,4.90
2023-05-14T01:45:57.285Z,5.77
2023-05-14T01:48:30.266Z,5.27
2023-05-14T01:51:02.599Z,5.27
2023-05-14T01:53:34.916Z,6.03
2023-05-14T01:56:06.859Z,4.90
2023-05-14T01:58:38.648Z,4.67
2023-05-14T02:01:10.827Z,4.60
2023-05-14T02:03:42.727Z,5.30
2023-05-14T02:06:14.534Z,5.00
2023-05-14T02:08:46.340Z,6.13
2023-05-14T02:11:18.131Z,5.50
2023-05-14T02:13:49.868Z,6.93
2023-05-14T02:16:21.735Z,4.83
2023-05-14T02:18:56.380Z,5.93
2023-05-14T02:21:28.137Z,5.17
2023-05-14T02:23:59.841Z,5.07
2023-05-14T02:26:31.582Z,7.70
2023-05-14T02:29:03.497Z,5.47
2023-05-14T02:31:35.373Z,5.57
2023-05-14T02:34:07.260Z,8.23
2023-05-14T02:36:38.955Z,6.93
2023-05-14T02:39:10.795Z,10.00
2023-05-14T02:41:42.512Z,5.33
2023-05-14T02:44:14.206Z,4.77
2023-05-14T02:46:46.779Z,5.53
2023-05-14T02:49:18.543Z,4.50
2023-05-14T02:51:50.255Z,5.23
2023-05-14T02:54:22.160Z,6.27
2023-05-14T02:56:53.863Z,5.10
2023-05-14T02:59:25.618Z,4.97
2023-05-14T03:01:57.916Z,8.13
2023-05-14T03:04:30.056Z,5.33
2023-05-14T03:07:01.795Z,4.23
2023-05-14T03:09:34.605Z,4.17
2023-05-14T03:12:08.160Z,4.03
2023-05-14T03:14:39.953Z,4.07
2023-05-14T03:17:12.132Z,4.00
2023-05-14T03:19:44.473Z,4.67
2023-05-14T03:22:16.236Z,4.17
2023-05-14T03:24:47.922Z,5.27
2023-05-14T03:27:19.622Z,4.43
2023-05-14T03:29:51.330Z,4.37
2023-05-14T03:32:23.220Z,4.73
2023-05-14T03:34:55.004Z,4.40
2023-05-14T03:37:26.716Z,4.03
2023-05-14T03:39:58.397Z,3.90
2023-05-14T03:42:30.254Z,4.47
2023-05-14T03:45:01.987Z,3.70
2023-05-14T03:47:33.708Z,4.17
2023-05-14T03:50:07.259Z,4.53
2023-05-14T03:52:39.065Z,4.13
2023-05-14T03:55:10.798Z,5.93
2023-05-14T03:57:42.491Z,4.47
2023-05-14T04:00:14.917Z,5.47
2023-05-14T04:02:49.630Z,5.93
2023-05-14T04:05:21.704Z,4.90
2023-05-14T04:07:53.787Z,4.37
2023-05-14T04:10:25.614Z,6.43
2023-05-14T04:12:58.492Z,4.83
2023-05-14T04:15:35.827Z,5.57
2023-05-14T04:18:07.760Z,6.03
2023-05-14T04:20:40.478Z,4.63
2023-05-14T04:23:12.304Z,5.20
2023-05-14T04:25:44.002Z,6.43
2023-05-14T04:28:15.824Z,4.63
2023-05-14T04:30:48.746Z,4.80
2023-05-14T04:33:20.739Z,4.67
2023-05-14T04:35:52.921Z,5.93
2023-05-14T04:38:24.626Z,4.37
2023-05-14T04:40:56.940Z,8.47
2023-05-14T04:43:28.653Z,4.00
2023-05-14T04:46:00.684Z,3.90
2023-05-14T04:48:32.651Z,3.37
2023-05-14T04:51:06.368Z,5.20
2023-05-14T04:53:38.832Z,3.60
2023-05-14T04:56:10.835Z,3.43
2023-05-14T04:58:42.529Z,2.97
2023-05-14T05:01:14.976Z,3.50
2023-05-14T05:03:46.805Z,3.43
2023-05-14T05:06:18.908Z,3.60
2023-05-14T05:08:50.783Z,2.73
2023-05-14T05:11:22.486Z,3.37
2023-05-14T05:13:54.308Z,3.30
2023-05-14T05:16:26.394Z,2.83
2023-05-14T05:18:58.182Z,3.47
2023-05-14T05:21:30.064Z,3.23
2023-05-14T05:24:01.737Z,3.40
2023-05-14T05:26:33.521Z,3.90
2023-05-14T05:29:05.840Z,3.23
2023-05-14T05:31:37.779Z,3.27
2023-05-14T05:34:09.553Z,3.70
2023-05-14T05:36:41.545Z,3.92
2023-05-14T05:39:13.241Z,3.22
2023-05-14T05:41:44.912Z,4.68
2023-05-14T05:44:16.658Z,3.80
2023-05-14T05:46:48.369Z,3.60
2023-05-14T05:49:20.214Z,4.20
2023-05-14T05:51:51.907Z,3.37
2023-05-14T05:54:25.014Z,3.20
2023-05-14T05:56:56.733Z,3.15
2023-05-14T05:59:28.492Z,3.80
2023-05-14T06:02:00.257Z,3.90
2023-05-14T06:04:32.072Z,3.50
2023-05-14T06:07:04.277Z,3.47
2023-05-14T06:09:35.962Z,4.90
2023-05-14T06:12:08.072Z,3.27
2023-05-14T06:14:39.744Z,2.63
2023-05-14T06:17:11.915Z,3.43
2023-05-14T06:19:43.668Z,3.20
2023-05-14T06:22:15.473Z,6.53
2023-05-14T06:24:48.071Z,2.73
2023-05-14T06:27:19.766Z,2.93
2023-05-14T06:29:51.455Z,3.03
2023-05-14T06:32:23.237Z,2.37
2023-05-14T06:34:55.039Z,3.70
2023-05-14T06:37:26.762Z,3.20
2023-05-14T06:39:58.625Z,3.77
2023-05-14T06:42:30.375Z,2.10
2023-05-14T06:45:03.610Z,2.77
2023-05-14T06:47:35.354Z,2.30
2023-05-14T06:50:09.447Z,3.13
2023-05-14T06:52:43.932Z,3.60
2023-05-14T06:55:15.627Z,2.70
2023-05-14T06:57:47.326Z,3.67
2023-05-14T07:00:19.666Z,2.50
2023-05-14T07:02:51.386Z,2.17
2023-05-14T07:05:24.706Z,2.07
2023-05-14T07:07:56.418Z,1.57
2023-05-14T07:10:28.198Z,2.33
2023-05-14T07:13:00.002Z,2.40
2023-05-14T07:15:31.736Z,2.37
2023-05-14T07:18:03.678Z,2.27
2023-05-14T07:20:35.465Z,2.50
2023-05-14T07:23:07.180Z,2.00
2023-05-14T07:25:39.089Z,2.87
2023-05-14T07:28:10.810Z,3.50
2023-05-14T07:30:42.548Z,2.30
2023-05-14T07:33:14.246Z,2.10
2023-05-14T07:35:46.166Z,1.07
2023-05-14T07:38:18.872Z,1.30
2023-05-14T07:40:50.584Z,0.87
2023-05-14T07:43:22.301Z,3.63
2023-05-14T07:45:54.069Z,2.27
2023-05-14T07:48:25.897Z,0.90
2023-05-14T07:50:57.634Z,1.40
2023-05-14T07:53:29.677Z,0.83
2023-05-14T07:56:01.447Z,1.33
2023-05-14T07:58:33.151Z,0.80
2023-05-14T08:01:07.155Z,1.30
2023-05-14T08:03:39.291Z,1.07
2023-05-14T08:06:11.101Z,1.43
2023-05-14T08:08:42.800Z,1.30
2023-05-14T08:11:14.583Z,1.30
2023-05-14T08:13:46.295Z,2.33
2023-05-14T08:16:18.029Z,1.67
2023-05-14T08:18:49.822Z,5.87
2023-05-14T08:21:21.559Z,2.23
2023-05-14T08:23:53.317Z,1.10
2023-05-14T08:26:25.843Z,1.90
2023-05-14T08:28:57.628Z,0.80
2023-05-14T08:31:29.426Z,1.20
2023-05-14T08:34:01.183Z,1.20
2023-05-14T08:36:32.998Z,1.30
2023-05-14T08:39:05.105Z,1.30
2023-05-14T08:41:37.683Z,1.27
2023-05-14T08:44:20.562Z,2.70
2023-05-14T08:46:53.283Z,1.43
2023-05-14T08:49:44.818Z,1.30
2023-05-14T08:52:18.187Z,1.20
2023-05-14T08:54:53.559Z,1.33
2023-05-14T08:57:26.597Z,1.00
2023-05-14T08:59:58.748Z,0.90
2023-05-14T09:02:31.544Z,1.17
2023-05-14T09:05:04.296Z,0.90
2023-05-14T09:07:36.651Z,1.40
2023-05-14T09:10:09.384Z,1.10
2023-05-14T09:12:41.118Z,1.50
2023-05-14T09:15:13.145Z,1.20
2023-05-14T09:17:48.504Z,1.40
2023-05-14T09:20:20.795Z,1.00
2023-05-14T09:22:56.758Z,2.30
2023-05-14T09:25:32.110Z,1.00
2023-05-14T09:28:08.370Z,1.10
2023-05-14T09:30:40.088Z,1.00
2023-05-14T09:33:11.801Z,1.20
2023-05-14T09:35:43.656Z,1.00
2023-05-14T09:38:16.017Z,1.33
2023-05-14T09:40:48.292Z,1.20
2023-05-14T09:43:20.081Z,1.27
2023-05-14T09:45:52.882Z,1.40
2023-05-14T09:48:25.702Z,1.40
2023-05-14T09:50:57.545Z,1.43
2023-05-14T09:53:30.620Z,1.33
2023-05-14T09:56:02.382Z,2.60
2023-05-14T09:58:34.103Z,1.33
2023-05-14T10:01:06.582Z,1.20
2023-05-14T10:03:38.450Z,1.47
2023-05-14T10:06:13.117Z,1.20
2023-05-14T10:08:46.085Z,1.43
2023-05-14T10:11:25.623Z,2.07
2023-05-14T10:14:09.166Z,1.20
2023-05-14T10:16:43.664Z,1.10
2023-05-14T10:19:17.872Z,1.53
2023-05-14T10:21:56.240Z,1.20
2023-05-14T10:24:28.328Z,1.50
2023-05-14T10:27:00.350Z,1.40
2023-05-14T10:29:34.536Z,1.67
2023-05-14T10:32:08.289Z,1.50
2023-05-14T10:34:43.833Z,1.50
2023-05-14T10:37:23.835Z,1.50
2023-05-14T10:40:08.280Z,1.63
2023-05-14T10:42:40.657Z,1.70
2023-05-14T10:45:16.306Z,1.43
2023-05-14T10:47:48.643Z,1.60
2023-05-14T10:50:20.999Z,1.87
2023-05-14T10:52:52.884Z,1.53
2023-05-14T10:55:25.523Z,1.53
2023-05-14T10:57:59.100Z,1.53
2023-05-14T11:00:34.226Z,1.50
2023-05-14T11:03:07.179Z,2.47
2023-05-14T11:05:41.069Z,1.50
2023-05-14T11:08:13.706Z,2.40
2023-05-14T11:10:47.045Z,1.97
2023-05-14T11:13:19.684Z,1.70
2023-05-14T11:15:51.520Z,2.13
2023-05-14T11:18:30.093Z,2.10
2023-05-14T11:21:02.309Z,1.57
2023-05-14T11:23:34.033Z,1.50
2023-05-14T11:26:05.928Z,1.33
2023-05-14T11:28:38.774Z,2.20
2023-05-14T11:31:10.719Z,1.27
2023-05-14T11:33:42.536Z,2.27
2023-05-14T11:36:14.717Z,1.43
2023-05-14T11:38:52.057Z,1.60
2023-05-14T11:41:23.871Z,1.33
2023-05-14T11:43:55.636Z,1.10
2023-05-14T11:46:29.896Z,1.40
2023-05-14T11:49:04.682Z,1.40
2023-05-14T11:51:36.533Z,1.40
2023-05-14T11:54:08.216Z,3.23
2023-05-14T11:56:39.913Z,1.30
2023-05-14T11:59:12.214Z,4.17
2023-05-14T12:01:47.328Z,1.40
2023-05-14T12:04:22.617Z,1.20
2023-05-14T12:06:54.838Z,1.30
2023-05-14T12:09:26.834Z,2.63
2023-05-14T12:12:07.573Z,1.37
2023-05-14T12:14:41.659Z,0.93
2023-05-14T12:17:17.383Z,1.70
2023-05-14T12:19:53.777Z,2.13
2023-05-14T12:22:25.500Z,1.50
2023-05-14T12:24:58.728Z,1.50
2023-05-14T12:27:30.531Z,1.63
2023-05-14T12:30:19.794Z,1.50
2023-05-14T12:32:53.584Z,1.30
2023-05-14T12:35:25.580Z,1.47
2023-05-14T12:37:57.550Z,2.37
2023-05-14T12:40:29.463Z,1.27
2023-05-14T12:43:01.204Z,1.20
2023-05-14T12:45:33.007Z,1.53
2023-05-14T12:48:04.836Z,1.37
2023-05-14T12:50:36.584Z,2.60
2023-05-14T12:53:09.150Z,1.53
2023-05-14T12:55:40.980Z,1.37
2023-05-14T12:58:12.686Z,1.67
2023-05-14T13:00:44.421Z,2.17
2023-05-14T13:03:16.362Z,2.53
2023-05-14T13:05:48.144Z,1.60
2023-05-14T13:08:21.609Z,4.87
2023-05-14T13:10:54.273Z,1.97
2023-05-14T13:13:26.216Z,1.37
2023-05-14T13:15:57.947Z,2.10
2023-05-14T13:18:29.694Z,1.70
2023-05-14T13:21:04.171Z,1.70
2023-05-14T13:23:35.984Z,1.80
2023-05-14T13:26:07.737Z,2.27
2023-05-14T13:31:47.113Z,2.63
2023-05-14T13:34:19.068Z,3.40
2023-05-14T13:36:50.850Z,10.77
2023-05-14T13:39:26.840Z,7.43
2023-05-14T13:41:58.540Z,6.93
2023-05-14T13:44:30.454Z,2.97
2023-05-14T13:47:02.325Z,8.23
2023-05-14T13:49:34.094Z,3.83
2023-05-14T13:52:06.563Z,4.17
2023-05-14T13:54:38.286Z,5.40
2023-05-14T13:57:09.964Z,4.13
2023-05-14T13:59:42.271Z,4.37
2023-05-14T14:02:14.667Z,4.63
2023-05-14T14:04:46.505Z,1.63
2023-05-14T14:07:18.215Z,0.80
2023-05-14T14:09:49.905Z,1.30
2023-05-14T14:12:21.659Z,0.87
2023-05-14T14:14:53.861Z,2.00
2023-05-14T14:17:25.559Z,0.80
2023-05-14T14:19:57.255Z,1.17
2023-05-14T14:22:29.376Z,1.10
2023-05-14T14:25:01.639Z,1.80
2023-05-14T14:27:35.965Z,1.00
2023-05-14T14:30:15.531Z,0.73
2023-05-14T14:32:50.385Z,1.23
2023-05-14T14:35:23.234Z,0.90
2023-05-14T14:37:55.728Z,1.10
2023-05-14T14:40:27.562Z,1.37
2023-05-14T14:42:59.332Z,2.00
2023-05-14T14:45:31.142Z,2.60
2023-05-14T14:48:22.725Z,2.50
2023-05-14T14:50:55.443Z,2.53
2023-05-14T14:53:27.573Z,2.13
2023-05-14T14:56:00.582Z,1.20
2023-05-14T14:58:32.649Z,0.97
2023-05-14T15:01:04.581Z,1.13
2023-05-14T15:03:36.503Z,1.30
2023-05-14T15:06:08.377Z,1.50
2023-05-14T15:08:40.273Z,1.50
2023-05-14T15:11:11.998Z,0.80
2023-05-14T15:13:43.851Z,0.67
2023-05-14T15:16:15.897Z,0.93
2023-05-14T15:18:47.744Z,0.60
2023-05-14T15:21:19.574Z,0.80
2023-05-14T15:23:51.255Z,0.90
2023-05-14T15:26:23.039Z,1.20
2023-05-14T15:28:54.899Z,0.87
2023-05-14T15:31:26.825Z,0.83
2023-05-14T15:33:58.645Z,1.10
2023-05-14T15:36:30.828Z,1.07
2023-05-14T15:39:02.521Z,0.70
2023-05-14T15:41:34.405Z,1.70
2023-05-14T15:44:06.170Z,1.00
2023-05-14T15:46:38.050Z,1.57
2023-05-14T15:49:09.836Z,0.80
2023-05-14T15:51:42.673Z,1.10
2023-05-14T15:54:14.440Z,1.47
2023-05-14T15:56:46.602Z,1.63
2023-05-14T15:59:18.539Z,0.80
2023-05-14T16:01:51.043Z,1.17
2023-05-14T16:04:22.780Z,0.87
2023-05-14T16:06:54.604Z,0.97
2023-05-14T16:09:27.030Z,0.80
2023-05-14T16:11:58.963Z,0.97
2023-05-14T16:14:30.941Z,2.00
2023-05-14T16:17:02.971Z,2.17
2023-05-14T16:19:34.654Z,1.70
2023-05-14T16:22:06.516Z,1.33
2023-05-14T16:24:38.248Z,1.00
2023-05-14T16:27:09.972Z,0.80
2023-05-14T16:29:41.712Z,0.90
2023-05-14T16:32:13.587Z,2.20
2023-05-14T16:34:49.654Z,1.30
2023-05-14T16:37:21.631Z,1.43
2023-05-14T16:39:53.558Z,0.90
2023-05-14T16:42:26.223Z,1.00
2023-05-14T16:44:57.981Z,0.77
2023-05-14T16:47:29.685Z,1.00
2023-05-14T16:50:01.414Z,1.00
2023-05-14T16:52:33.337Z,1.33
2023-05-14T16:55:05.544Z,1.37
2023-05-14T16:57:37.399Z,1.40
2023-05-14T17:00:09.794Z,1.17
2023-05-14T17:02:41.602Z,1.33
2023-05-14T17:05:13.302Z,1.93
2023-05-14T17:07:45.086Z,0.80
2023-05-14T17:10:17.014Z,1.10
2023-05-14T17:12:48.697Z,0.97
2023-05-14T17:15:20.384Z,0.70
2023-05-14T17:17:52.219Z,1.47
2023-05-14T17:20:24.270Z,0.93
2023-05-14T17:22:56.100Z,1.07
2023-05-14T17:25:27.825Z,0.80
2023-05-14T17:28:00.134Z,0.87
2023-05-14T17:30:32.043Z,0.70
2023-05-14T17:33:04.189Z,0.73
2023-05-14T17:35:36.391Z,0.73
2023-05-14T17:38:08.253Z,1.10
2023-05-14T17:40:40.868Z,0.77
2023-05-14T17:43:12.791Z,0.80
2023-05-14T17:45:54.025Z,0.77
2023-05-14T17:48:26.567Z,0.80
2023-05-14T17:50:58.404Z,0.70
2023-05-14T17:53:30.089Z,0.87
2023-05-14T17:56:01.801Z,1.00
2023-05-14T17:58:33.638Z,0.80
2023-05-14T18:01:06.034Z,1.10
2023-05-14T18:03:38.496Z,1.20
2023-05-14T18:06:10.429Z,3.90
2023-05-14T18:08:42.539Z,2.17
2023-05-14T18:11:14.254Z,1.20
2023-05-14T18:13:45.942Z,1.87
2023-05-14T18:16:17.803Z,1.90
2023-05-14T18:18:49.739Z,1.57
2023-05-14T18:21:21.850Z,1.30
2023-05-14T18:23:53.530Z,1.43
2023-05-14T18:26:26.591Z,1.67
2023-05-14T18:28:58.706Z,1.23
2023-05-14T18:31:30.525Z,1.83
2023-05-14T18:34:02.304Z,1.77
2023-05-14T18:36:34.081Z,1.53
2023-05-14T18:39:05.802Z,1.67
2023-05-14T18:41:37.488Z,1.57
2023-05-14T18:44:09.249Z,3.10
2023-05-14T18:46:41.163Z,2.07
2023-05-14T18:49:12.945Z,2.50
2023-05-14T18:51:44.843Z,4.87
2023-05-14T18:54:16.532Z,2.00
2023-05-14T18:56:48.235Z,6.43
2023-05-14T18:59:20.024Z,2.10
2023-05-14T19:01:51.886Z,2.40
2023-05-14T19:04:23.730Z,2.17
2023-05-14T19:06:55.465Z,1.90
2023-05-14T19:09:27.155Z,1.53
2023-05-14T19:11:58.826Z,2.60
2023-05-14T19:14:31.236Z,1.13
2023-05-14T19:17:03.214Z,1.20
2023-05-14T19:19:35.195Z,1.17
2023-05-14T19:22:07.127Z,1.57
2023-05-14T19:24:38.886Z,0.90
2023-05-14T19:27:11.052Z,1.30
2023-05-14T19:29:43.329Z,2.60
2023-05-14T19:32:15.060Z,1.60
2023-05-14T19:34:46.947Z,1.90
2023-05-14T19:37:18.884Z,1.30
2023-05-14T19:39:50.598Z,1.57
2023-05-14T19:42:22.269Z,1.53
2023-05-14T19:44:54.533Z,1.60
2023-05-14T19:47:27.458Z,1.47
2023-05-14T19:49:59.232Z,4.33
2023-05-14T19:52:31.024Z,1.80
2023-05-14T19:55:02.792Z,1.57
2023-05-14T19:57:34.506Z,1.80
2023-05-14T20:00:08.840Z,1.97
2023-05-14T20:02:43.181Z,3.40
2023-05-14T20:05:15.409Z,3.40
2023-05-14T20:07:48.815Z,1.47
2023-05-14T20:10:21.442Z,1.83
2023-05-14T20:12:53.132Z,1.90
2023-05-14T20:15:24.828Z,2.00
2023-05-14T20:17:57.640Z,2.87
2023-05-14T20:20:33.024Z,2.17
2023-05-14T20:23:05.523Z,3.17
2023-05-14T20:25:37.226Z,1.87
2023-05-14T20:28:08.912Z,2.07
2023-05-14T20:30:40.696Z,1.60
2023-05-14T20:33:13.807Z,1.80
2023-05-14T20:35:45.594Z,2.03
2023-05-14T20:38:19.082Z,2.03
2023-05-14T20:40:50.880Z,1.97
2023-05-14T20:43:22.584Z,6.10
2023-05-14T20:45:54.375Z,3.43
2023-05-14T20:48:26.277Z,1.97
2023-05-14T20:50:57.990Z,2.90
2023-05-14T20:53:29.686Z,2.37
2023-05-14T20:56:01.394Z,2.33
2023-05-14T20:58:35.558Z,2.90
2023-05-14T21:01:07.985Z,2.10
2023-05-14T21:03:39.818Z,2.43
2023-05-14T21:06:11.645Z,2.07
2023-05-14T21:08:43.326Z,1.87
2023-05-14T21:11:15.171Z,2.17
2023-05-14T21:13:47.187Z,2.00
2023-05-14T21:16:19.932Z,1.93
2023-05-14T21:18:51.714Z,1.60
2023-05-14T21:21:23.439Z,2.70
2023-05-14T21:23:55.120Z,3.97
2023-05-14T21:26:28.138Z,2.67
2023-05-14T21:29:00.747Z,3.30
2023-05-14T21:31:32.466Z,1.60
2023-05-14T21:34:04.178Z,1.37
2023-05-14T21:36:35.912Z,1.63
2023-05-14T21:39:08.069Z,1.83
2023-05-14T21:41:39.831Z,3.60
2023-05-14T21:44:11.503Z,1.43
2023-05-14T21:46:43.277Z,1.73
2023-05-14T21:49:14.945Z,1.80
2023-05-14T21:51:46.724Z,1.37
2023-05-14T21:54:18.936Z,1.50
2023-05-14T21:56:50.943Z,1.53
2023-05-14T21:59:22.699Z,1.23
2023-05-14T22:04:29.130Z,1.50
2023-05-14T22:07:01.518Z,1.17
2023-05-14T22:09:33.305Z,1.37
2023-05-14T22:12:06.224Z,2.23
2023-05-14T22:14:38.016Z,1.30
2023-05-14T22:17:09.764Z,1.40
2023-05-14T22:19:41.450Z,1.40
2023-05-14T22:22:13.176Z,1.40
2023-05-14T22:24:44.882Z,1.17
2023-05-14T22:27:17.448Z,1.20
2023-05-14T22:29:49.175Z,1.40
2023-05-14T22:32:21.190Z,1.37
2023-05-14T22:34:52.913Z,1.20
2023-05-14T22:37:24.610Z,0.93
2023-05-14T22:39:56.294Z,1.90
2023-05-14T22:42:28.413Z,1.50
2023-05-14T22:45:00.120Z,2.03
2023-05-14T22:47:31.894Z,3.90
2023-05-14T22:50:03.811Z,2.50
2023-05-14T22:52:35.566Z,2.73
2023-05-14T22:55:07.645Z,1.37
2023-05-14T22:57:39.693Z,1.30
2023-05-14T23:00:12.100Z,0.90
2023-05-14T23:02:43.812Z,1.13
2023-05-14T23:05:15.643Z,1.10
2023-05-14T23:07:47.432Z,1.50
2023-05-14T23:10:19.183Z,3.17
2023-05-14T23:12:50.928Z,1.03
2023-05-14T23:15:22.793Z,1.90
2023-05-14T23:17:54.756Z,1.27
2023-05-14T23:20:26.569Z,2.03
2023-05-14T23:22:58.380Z,1.00
2023-05-14T23:25:31.502Z,1.40
2023-05-14T23:28:03.322Z,1.00
2023-05-14T23:30:35.021Z,1.30
2023-05-14T23:33:06.893Z,1.20
2023-05-14T23:35:39.238Z,1.00
2023-05-14T23:38:10.996Z,1.20
2023-05-14T23:40:42.702Z,1.60
2023-05-14T23:43:14.997Z,0.97
2023-05-14T23:45:46.717Z,1.20
2023-05-14T23:48:18.494Z,1.07
2023-05-14T23:50:50.743Z,0.97
2023-05-14T23:53:22.502Z,1.07
2023-05-14T23:55:54.222Z,1.30
2023-05-14T23:58:26.296Z,2.53
